createdAt,value
2023-04-03T00:03:49.995Z,99.90
2023-04-03T00:07:54.290Z,99.90
2023-04-03T00:11:54.987Z,99.90
2023-04-03T00:15:58.436Z,99.90
2023-04-03T00:19:59.040Z,99.90
2023-04-03T00:23:59.700Z,99.90
2023-04-03T00:28:00.137Z,99.90
2023-04-03T00:32:03.881Z,99.90
2023-04-03T00:36:11.148Z,99.90
2023-04-03T00:40:13.898Z,99.90
2023-04-03T00:44:26.152Z,99.90
2023-04-03T00:48:34.768Z,99.90
2023-04-03T00:52:36.174Z,99.90
2023-04-03T00:56:37.686Z,99.90
2023-04-03T01:00:41.565Z,99.90
2023-04-03T01:04:48.465Z,99.90
2023-04-03T01:08:50.886Z,99.90
2023-04-03T01:12:54.192Z,99.90
2023-04-03T01:16:59.397Z,99.90
2023-04-03T01:21:50.002Z,99.90
2023-04-03T01:25:53.686Z,99.90
2023-04-03T01:29:54.525Z,99.90
2023-04-03T01:33:58.843Z,99.90
2023-04-03T01:37:59.463Z,99.90
2023-04-03T01:42:00.821Z,99.90
2023-04-03T01:46:09.034Z,99.90
2023-04-03T01:50:14.181Z,99.90
2023-04-03T01:54:15.055Z,99.90
2023-04-03T01:58:16.054Z,99.90
2023-04-03T02:02:17.308Z,99.90
2023-04-03T02:06:20.493Z,99.90
2023-04-03T02:10:21.403Z,99.90
2023-04-03T02:14:23.044Z,99.90
2023-04-03T02:18:23.924Z,99.90
2023-04-03T02:22:27.483Z,99.90
2023-04-03T02:26:28.510Z,99.90
2023-04-03T02:30:32.108Z,99.90
2023-04-03T02:34:32.680Z,99.90
2023-04-03T02:38:38.166Z,99.90
2023-04-03T02:42:38.835Z,99.90
2023-04-03T02:46:40.166Z,99.90
2023-04-03T02:50:41.999Z,99.90
2023-04-03T02:54:45.646Z,99.90
2023-04-03T02:58:47.159Z,99.90
2023-04-03T03:02:50.983Z,99.90
2023-04-03T03:06:52.220Z,99.90
2023-04-03T03:10:55.232Z,99.90
2023-04-03T03:14:55.952Z,99.90
2023-04-03T03:18:57.865Z,99.90
2023-04-03T03:22:58.964Z,99.90
2023-04-03T03:27:01.985Z,99.90
2023-04-03T03:31:03.234Z,99.90
2023-04-03T03:35:05.107Z,99.90
2023-04-03T03:39:05.645Z,99.90
2023-04-03T03:43:09.029Z,99.90
2023-04-03T03:47:12.015Z,99.90
2023-04-03T03:51:12.902Z,99.90
2023-04-03T03:55:14.049Z,99.90
2023-04-03T03:59:19.202Z,99.90
2023-04-03T04:03:20.741Z,99.90
2023-04-03T04:07:22.977Z,99.90
2023-04-03T04:11:25.184Z,99.90
2023-04-03T04:15:32.378Z,99.90
2023-04-03T04:19:34.364Z,99.90
2023-04-03T04:23:35.313Z,99.90
2023-04-03T04:27:36.331Z,99.90
2023-04-03T04:31:40.202Z,99.90
2023-04-03T04:35:43.018Z,99.90
2023-04-03T04:39:48.381Z,99.90
2023-04-03T04:43:51.662Z,99.90
2023-04-03T04:47:55.962Z,99.90
2023-04-03T04:51:57.757Z,99.90
2023-04-03T04:56:02.977Z,99.90
2023-04-03T05:00:09.745Z,99.90
2023-04-03T05:04:14.716Z,99.90
2023-04-03T05:08:15.793Z,99.90
2023-04-03T05:12:20.124Z,99.90
2023-04-03T05:16:27.546Z,99.90
2023-04-03T05:20:31.970Z,99.90
2023-04-03T05:24:32.844Z,99.90
2023-04-03T05:28:36.524Z,99.90
2023-04-03T05:32:37.342Z,99.90
2023-04-03T05:37:07.541Z,99.90
2023-04-03T05:41:09.569Z,99.90
2023-04-03T05:45:11.698Z,99.90
2023-04-03T05:49:12.653Z,99.90
2023-04-03T05:53:25.287Z,99.90
2023-04-03T05:57:27.443Z,99.90
2023-04-03T06:01:28.243Z,99.90
2023-04-03T06:05:31.381Z,99.90
2023-04-03T06:09:35.219Z,99.90
2023-04-03T06:13:37.515Z,99.90
2023-04-03T06:17:38.630Z,99.90
2023-04-03T06:21:39.701Z,99.90
2023-04-03T06:25:44.605Z,99.90
2023-04-03T06:29:46.552Z,99.90
2023-04-03T06:33:47.218Z,99.90
2023-04-03T06:37:47.775Z,99.90
2023-04-03T06:41:51.309Z,99.90
2023-04-03T06:45:52.875Z,99.90
2023-04-03T06:49:55.351Z,99.90
2023-04-03T06:53:58.615Z,99.90
2023-04-03T06:58:02.259Z,99.90
2023-04-03T07:02:02.899Z,99.90
2023-04-03T07:06:03.517Z,99.90
2023-04-03T07:10:08.661Z,99.90
2023-04-03T07:14:12.119Z,99.90
2023-04-03T07:18:12.452Z,99.90
2023-04-03T07:22:13.409Z,99.90
2023-04-03T07:26:14.101Z,99.90
2023-04-03T07:30:18.354Z,99.90
2023-04-03T07:34:19.188Z,99.90
2023-04-03T07:38:21.397Z,99.90
2023-04-03T07:42:22.582Z,99.90
2023-04-03T07:46:26.201Z,99.90
2023-04-03T07:50:28.491Z,99.90
2023-04-03T07:54:31.485Z,99.90
2023-04-03T07:58:32.430Z,99.90
2023-04-03T08:02:36.152Z,99.90
2023-04-03T08:06:46.564Z,99.90
2023-04-03T08:10:47.766Z,99.90
2023-04-03T08:14:48.213Z,99.90
2023-04-03T08:18:51.525Z,99.90
2023-04-03T08:22:53.007Z,99.90
2023-04-03T08:26:53.458Z,99.90
2023-04-03T08:30:53.932Z,99.90
2023-04-03T08:34:57.342Z,99.90
2023-04-03T08:38:59.409Z,99.90
2023-04-03T08:43:34.592Z,99.90
2023-04-03T08:47:43.253Z,99.90
2023-04-03T08:51:53.810Z,99.90
2023-04-03T08:55:57.270Z,99.90
2023-04-03T08:59:58.103Z,99.90
2023-04-03T09:03:58.634Z,99.90
2023-04-03T09:08:11.332Z,99.90
2023-04-03T09:12:25.071Z,99.90
2023-04-03T09:16:43.091Z,99.90
2023-04-03T09:20:50.593Z,99.90
2023-04-03T09:25:07.047Z,99.90
2023-04-03T09:29:12.830Z,99.90
2023-04-03T09:33:15.401Z,99.90
2023-04-03T09:37:41.848Z,99.90
2023-04-03T09:41:45.265Z,99.90
2023-04-03T09:45:46.319Z,99.90
2023-04-03T09:49:47.051Z,99.90
2023-04-03T09:53:49.689Z,99.90
2023-04-03T09:57:54.225Z,99.90
2023-04-03T10:02:03.994Z,98.40
2023-04-03T10:06:09.060Z,96.50
2023-04-03T10:10:27.130Z,95.50
2023-04-03T10:14:31.225Z,92.50
2023-04-03T10:18:46.512Z,90.00
2023-04-03T10:23:04.391Z,89.40
2023-04-03T10:27:17.505Z,88.60
2023-04-03T10:31:29.638Z,89.10
2023-04-03T10:35:53.490Z,89.10
2023-04-03T10:40:02.994Z,88.00
2023-04-03T10:44:19.631Z,83.10
2023-04-03T10:48:47.228Z,78.20
2023-04-03T10:53:00.335Z,76.70
2023-04-03T10:57:12.442Z,78.20
2023-04-03T11:01:21.513Z,73.70
2023-04-03T11:05:38.108Z,71.50
2023-04-03T11:09:44.341Z,69.30
2023-04-03T11:13:54.176Z,66.50
2023-04-03T11:18:02.339Z,63.40
2023-04-03T11:22:15.124Z,61.30
2023-04-03T11:26:18.847Z,60.60
2023-04-03T11:30:27.435Z,60.60
2023-04-03T11:34:41.590Z,62.50
2023-04-03T11:38:54.030Z,59.90
2023-04-03T11:43:00.941Z,59.40
2023-04-03T11:47:06.378Z,61.30
2023-04-03T11:51:46.945Z,56.70
2023-04-03T11:56:21.907Z,55.80
2023-04-03T12:01:07.296Z,54.20
2023-04-03T12:05:31.715Z,54.50
2023-04-03T12:09:54.889Z,53.60
2023-04-03T12:14:17.648Z,54.70
2023-04-03T12:18:45.723Z,53.10
2023-04-03T12:23:27.428Z,57.00
2023-04-03T12:27:47.144Z,54.30
2023-04-03T12:32:14.199Z,54.00
2023-04-03T12:36:22.830Z,54.20
2023-04-03T12:40:36.642Z,57.80
2023-04-03T12:44:59.082Z,61.20
2023-04-03T12:49:03.761Z,56.40
2023-04-03T12:53:08.808Z,50.80
2023-04-03T12:57:20.843Z,48.40
2023-04-03T13:01:27.024Z,47.80
2023-04-03T13:05:31.007Z,49.20
2023-04-03T13:09:33.962Z,51.40
2023-04-03T13:13:34.401Z,53.80
2023-04-03T13:17:36.422Z,54.70
2023-04-03T13:21:39.840Z,57.40
2023-04-03T13:25:46.646Z,57.80
2023-04-03T13:29:48.434Z,57.60
2023-04-03T13:34:04.298Z,58.40
2023-04-03T13:38:25.227Z,59.10
2023-04-03T13:42:30.878Z,56.00
2023-04-03T13:46:32.389Z,53.80
2023-04-03T13:50:33.177Z,54.60
2023-04-03T13:54:41.362Z,55.10
2023-04-03T13:58:43.032Z,56.70
2023-04-03T14:02:43.829Z,59.30
2023-04-03T14:06:45.015Z,57.70
2023-04-03T14:10:51.023Z,57.20
2023-04-03T14:14:53.839Z,57.70
2023-04-03T14:18:55.800Z,59.60
2023-04-03T14:22:58.332Z,59.00
2023-04-03T14:27:02.683Z,55.80
2023-04-03T14:31:04.321Z,54.10
2023-04-03T14:35:05.812Z,56.10
2023-04-03T14:39:09.970Z,58.70
2023-04-03T14:43:16.867Z,59.40
2023-04-03T14:47:30.528Z,62.60
2023-04-03T14:51:32.979Z,62.20
2023-04-03T14:55:34.930Z,60.60
2023-04-03T14:59:38.817Z,64.70
2023-04-03T15:03:39.449Z,66.00
2023-04-03T15:07:44.489Z,64.70
2023-04-03T15:11:44.885Z,67.70
2023-04-03T15:15:49.000Z,67.30
2023-04-03T15:19:49.990Z,65.10
2023-04-03T15:23:52.020Z,67.50
2023-04-03T15:27:53.845Z,68.30
2023-04-03T15:31:58.500Z,67.80
2023-04-03T15:36:06.999Z,69.00
2023-04-03T15:40:13.973Z,70.80
2023-04-03T15:44:15.026Z,73.10
2023-04-03T15:48:19.372Z,73.00
2023-04-03T15:52:19.768Z,74.00
2023-04-03T15:56:20.324Z,75.10
2023-04-03T16:00:22.695Z,75.50
2023-04-03T16:04:26.431Z,77.40
2023-04-03T16:08:27.171Z,76.20
2023-04-03T16:12:27.575Z,77.80
2023-04-03T16:16:32.247Z,77.50
2023-04-03T16:20:36.226Z,78.40
2023-04-03T16:24:36.992Z,79.30
2023-04-03T16:28:37.734Z,79.70
2023-04-03T16:32:41.317Z,81.20
2023-04-03T16:36:44.533Z,83.70
2023-04-03T16:40:49.650Z,83.30
2023-04-03T16:44:50.416Z,83.70
2023-04-03T16:48:50.961Z,85.10
2023-04-03T16:52:54.073Z,84.00
2023-04-03T16:56:59.058Z,87.10
2023-04-03T17:01:03.320Z,86.90
2023-04-03T17:05:06.539Z,88.20
2023-04-03T17:09:13.288Z,88.70
2023-04-03T17:13:13.938Z,87.80
2023-04-03T17:17:17.242Z,89.70
2023-04-03T17:21:19.223Z,90.60
2023-04-03T17:25:22.875Z,90.40
2023-04-03T17:29:23.533Z,91.10
2023-04-03T17:33:24.111Z,90.40
2023-04-03T17:37:24.578Z,89.40
2023-04-03T17:41:28.089Z,90.20
2023-04-03T17:45:28.668Z,90.50
2023-04-03T17:49:33.694Z,90.80
2023-04-03T17:53:36.982Z,91.80
2023-04-03T17:57:41.894Z,91.70
2023-04-03T18:01:45.329Z,93.40
2023-04-03T18:05:47.900Z,93.00
2023-04-03T18:09:52.540Z,94.40
2023-04-03T18:14:02.268Z,95.20
2023-04-03T18:18:03.157Z,95.00
2023-04-03T18:22:06.572Z,95.00
2023-04-03T18:26:12.680Z,95.80
2023-04-03T18:30:21.097Z,95.00
2023-04-03T18:34:21.589Z,95.30
2023-04-03T18:38:22.200Z,95.10
2023-04-03T18:42:28.046Z,96.00
2023-04-03T18:46:32.024Z,97.40
2023-04-03T18:50:34.008Z,97.20
2023-04-03T18:54:37.515Z,97.70
2023-04-03T18:58:38.086Z,97.50
2023-04-03T19:02:43.768Z,97.70
2023-04-03T19:06:56.017Z,97.50
2023-04-03T19:10:58.722Z,98.10
2023-04-03T19:14:59.938Z,98.50
2023-04-03T19:19:04.396Z,98.70
2023-04-03T19:23:05.966Z,99.30
2023-04-03T19:27:08.308Z,98.30
2023-04-03T19:31:16.442Z,98.70
2023-04-03T19:35:20.168Z,99.30
2023-04-03T19:39:20.754Z,99.60
2023-04-03T19:43:21.658Z,99.90
2023-04-03T19:47:25.050Z,99.90
2023-04-03T19:51:31.199Z,99.90
2023-04-03T19:55:32.988Z,99.90
2023-04-03T19:59:39.007Z,99.90
2023-04-03T20:03:45.068Z,99.90
2023-04-03T20:07:48.964Z,99.90
2023-04-03T20:11:51.453Z,99.90
2023-04-03T20:15:54.153Z,99.90
2023-04-03T20:20:01.497Z,99.90
2023-04-03T20:24:07.960Z,99.90
2023-04-03T20:28:11.221Z,99.90
2023-04-03T20:32:12.239Z,99.90
2023-04-03T20:36:12.894Z,99.90
2023-04-03T20:40:17.513Z,99.90
2023-04-03T20:44:20.052Z,99.90
2023-04-03T20:48:21.891Z,99.90
2023-04-03T20:52:22.849Z,99.90
2023-04-03T20:56:27.863Z,99.90
2023-04-03T21:00:29.743Z,99.90
2023-04-03T21:04:39.689Z,99.90
2023-04-03T21:09:25.324Z,99.90
2023-04-03T21:14:13.917Z,99.90
2023-04-03T21:18:56.001Z,99.90
2023-04-03T21:22:56.955Z,99.90
2023-04-03T21:27:02.954Z,99.90
2023-04-03T21:31:08.751Z,99.90
2023-04-03T21:35:13.175Z,99.90
2023-04-03T21:39:13.682Z,99.90
2023-04-03T21:43:14.197Z,99.90
2023-04-03T21:47:15.737Z,99.90
2023-04-03T21:51:20.219Z,99.90
2023-04-03T21:55:21.082Z,99.90
2023-04-03T21:59:22.167Z,99.90
2023-04-03T22:03:24.214Z,99.90
2023-04-03T22:07:27.710Z,99.90
2023-04-03T22:11:29.460Z,99.90
2023-04-03T22:15:30.340Z,99.90
2023-04-03T22:19:30.700Z,99.90
2023-04-03T22:23:36.022Z,99.90
2023-04-03T22:27:36.595Z,99.90
2023-04-03T22:31:37.237Z,99.90
2023-04-03T22:35:37.907Z,99.90
2023-04-03T22:39:41.007Z,99.90
2023-04-03T22:43:42.837Z,99.90
2023-04-03T22:47:47.214Z,99.90
2023-04-03T22:51:47.840Z,99.90
2023-04-03T22:55:58.422Z,99.90
2023-04-03T22:59:59.091Z,99.90
2023-04-03T23:03:59.556Z,99.90
2023-04-03T23:07:59.952Z,99.90
2023-04-03T23:12:04.716Z,99.90
2023-04-03T23:16:07.282Z,99.90
2023-04-03T23:20:09.953Z,99.90
2023-04-03T23:24:11.800Z,99.90
2023-04-03T23:28:14.831Z,99.90
2023-04-03T23:32:15.188Z,99.90
2023-04-03T23:36:16.304Z,99.90
2023-04-03T23:40:17.164Z,99.90
2023-04-03T23:44:20.438Z,99.90
2023-04-03T23:48:21.056Z,99.90
2023-04-03T23:52:21.479Z,99.90
2023-04-03T23:56:24.601Z,99.90
